KPCD/PCD METAR and TAF weather

Enter ICAO airport designator
Station Type Date Time Source
KPCD METAR 2019/10/23 20:35 UTC NOAA

KPCD 232035Z AUTO 20013G19KT 10SM CLR 22/04 A2999 RMK AO2 T02190041


Station Type Date Time Source
KPCD Decoded METAR 2019/10/23 20:35 UTC NOAA

Station name not available
Oct 23, 2019 - 04:35 PM EDT / 2019.10.23 2035 UTC
Wind: from the SSW (200 degrees) at 15 MPH (13 KT) gusting to 22 MPH (19 KT):0
Visibility: 10 mile(s):0
Sky conditions: clear
Temperature: 71.4 F (21.9 C)
Dew Point: 39.4 F (4.1 C)
Relative Humidity: 31%
Pressure (altimeter): 29.99 in. Hg (1015 hPa)
ob: KPCD 232035Z AUTO 20013G19KT 10SM CLR 22/04 A2999 RMK AO2 T02190041
cycle: 20

Station Type Date Time Source
KPCD TAF UTC NOAA

Error!

Example: see airport list